createdAt,value
2022-09-12T00:00:35.300Z,19.52
2022-09-12T00:01:37.046Z,19.52
2022-09-12T00:02:38.882Z,19.47
2022-09-12T00:03:40.818Z,19.51
2022-09-12T00:04:42.605Z,19.49
2022-09-12T00:05:46.900Z,19.50
2022-09-12T00:06:48.652Z,19.46
2022-09-12T00:07:50.679Z,19.42
2022-09-12T00:08:55.261Z,19.46
2022-09-12T00:09:56.983Z,19.45
2022-09-12T00:10:58.660Z,19.43
2022-09-12T00:12:00.343Z,19.39
2022-09-12T00:13:04.769Z,19.38
2022-09-12T00:14:08.454Z,19.37
2022-09-12T00:15:10.904Z,19.39
2022-09-12T00:16:20.598Z,19.38
2022-09-12T00:17:22.315Z,19.34
2022-09-12T00:18:24.105Z,19.28
2022-09-12T00:19:29.673Z,19.34
2022-09-12T00:20:31.312Z,19.37
2022-09-12T00:21:34.742Z,19.30
2022-09-12T00:22:36.879Z,19.37
2022-09-12T00:23:38.674Z,19.38
2022-09-12T00:24:41.038Z,19.39
2022-09-12T00:25:47.972Z,19.36
2022-09-12T00:26:49.744Z,19.27
2022-09-12T00:27:51.397Z,19.37
2022-09-12T00:28:53.135Z,19.39
2022-09-12T00:29:54.886Z,19.36
2022-09-12T00:30:56.590Z,19.36
2022-09-12T00:31:58.256Z,19.36
2022-09-12T00:32:59.963Z,19.36
2022-09-12T00:34:01.775Z,19.32
2022-09-12T00:35:03.617Z,19.32
2022-09-12T00:36:14.868Z,19.27
2022-09-12T00:37:16.537Z,19.22
2022-09-12T00:38:18.477Z,19.29
2022-09-12T00:39:20.135Z,19.27
2022-09-12T00:40:21.866Z,19.27
2022-09-12T00:41:29.761Z,19.25
2022-09-12T00:42:31.432Z,19.26
2022-09-12T00:43:39.709Z,19.26
2022-09-12T00:44:48.301Z,19.25
2022-09-12T00:45:50.010Z,19.26
2022-09-12T00:46:57.503Z,19.21
2022-09-12T00:48:03.808Z,19.14
2022-09-12T00:49:22.917Z,19.13
2022-09-12T00:50:25.635Z,19.23
2022-09-12T00:51:30.712Z,19.23
2022-09-12T00:52:55.635Z,19.23
2022-09-12T00:53:59.648Z,19.19
2022-09-12T00:55:21.233Z,19.22
2022-09-12T00:56:23.693Z,19.19
2022-09-12T00:57:31.347Z,19.14
2022-09-12T00:58:40.204Z,19.01
2022-09-12T01:00:10.174Z,19.13
2022-09-12T01:01:12.077Z,19.10
2022-09-12T01:02:13.878Z,18.93
2022-09-12T01:03:19.537Z,19.00
2022-09-12T01:04:25.862Z,19.00
2022-09-12T01:05:29.517Z,18.89
2022-09-12T01:06:37.079Z,18.77
2022-09-12T01:07:40.788Z,18.85
2022-09-12T01:08:43.805Z,18.88
2022-09-12T01:09:46.326Z,18.86
2022-09-12T01:10:49.117Z,18.56
2022-09-12T01:11:53.206Z,18.86
2022-09-12T01:12:54.861Z,18.85
2022-09-12T01:13:56.715Z,18.87
2022-09-12T01:14:58.364Z,18.88
2022-09-12T01:16:00.077Z,18.87
2022-09-12T01:17:02.011Z,18.87
2022-09-12T01:18:24.618Z,18.88
2022-09-12T01:19:38.249Z,18.89
2022-09-12T01:20:50.571Z,18.84
2022-09-12T01:22:01.520Z,18.89
2022-09-12T01:23:42.898Z,18.80
2022-09-12T01:25:22.095Z,18.86
2022-09-12T01:26:52.450Z,18.82
2022-09-12T01:28:10.660Z,18.82
2022-09-12T01:29:46.318Z,18.81
2022-09-12T01:30:54.201Z,18.75
2022-09-12T01:32:16.758Z,18.74
2022-09-12T01:33:25.479Z,18.69
2022-09-12T01:34:37.770Z,18.70
2022-09-12T01:36:28.644Z,18.65
2022-09-12T01:37:44.375Z,18.56
2022-09-12T01:38:50.857Z,18.63
2022-09-12T01:40:17.395Z,18.63
2022-09-12T01:41:21.644Z,18.64
2022-09-12T01:42:45.338Z,18.63
2022-09-12T01:44:15.036Z,18.62
2022-09-12T01:45:58.891Z,18.58
2022-09-12T01:47:26.098Z,18.55
2022-09-12T01:48:33.194Z,18.46
2022-09-12T01:50:02.751Z,18.56
2022-09-12T01:51:20.251Z,18.51
2022-09-12T01:52:39.657Z,18.52
2022-09-12T01:54:10.072Z,18.54
2022-09-12T01:55:35.191Z,18.53
2022-09-12T01:56:40.200Z,18.52
2022-09-12T01:57:55.189Z,18.51
2022-09-12T01:59:05.284Z,18.54
2022-09-12T02:00:11.656Z,18.54
2022-09-12T02:01:21.886Z,18.46
2022-09-12T02:02:34.097Z,18.59
2022-09-12T02:03:48.709Z,18.56
2022-09-12T02:05:11.049Z,18.58
2022-09-12T02:06:20.767Z,18.54
2022-09-12T02:07:37.412Z,18.53
2022-09-12T02:08:47.421Z,18.40
2022-09-12T02:10:04.420Z,18.47
2022-09-12T02:11:08.260Z,18.46
2022-09-12T02:12:15.849Z,18.46
2022-09-12T02:13:25.945Z,18.44
2022-09-12T02:14:41.052Z,18.40
2022-09-12T02:16:03.289Z,18.39
2022-09-12T02:17:21.176Z,18.39
2022-09-12T02:18:25.435Z,18.38
2022-09-12T02:19:34.161Z,18.37
2022-09-12T02:20:54.880Z,18.36
2022-09-12T02:22:00.301Z,18.36
2022-09-12T02:23:06.551Z,18.36
2022-09-12T02:24:12.969Z,18.23
2022-09-12T02:25:18.401Z,18.32
2022-09-12T02:26:35.570Z,18.31
2022-09-12T02:27:43.104Z,18.27
2022-09-12T02:28:44.880Z,18.22
2022-09-12T02:29:46.841Z,18.24
2022-09-12T02:31:01.404Z,18.30
2022-09-12T02:32:16.020Z,18.24
2022-09-12T02:33:37.729Z,18.31
2022-09-12T02:34:49.629Z,18.22
2022-09-12T02:36:02.928Z,18.31
2022-09-12T02:37:26.882Z,18.31
2022-09-12T02:38:38.220Z,18.29
2022-09-12T02:39:44.970Z,18.25
2022-09-12T02:40:47.228Z,18.29
2022-09-12T02:41:52.071Z,18.29
2022-09-12T02:42:53.814Z,18.27
2022-09-12T02:43:56.028Z,18.24
2022-09-12T02:44:57.760Z,18.26
2022-09-12T02:45:59.629Z,18.26
2022-09-12T02:47:16.948Z,18.26
2022-09-12T02:48:23.825Z,18.25
2022-09-12T02:49:25.567Z,18.25
2022-09-12T02:50:28.186Z,18.22
2022-09-12T02:51:30.437Z,18.20
2022-09-12T02:52:32.418Z,18.20
2022-09-12T02:53:34.614Z,18.19
2022-09-12T02:54:38.288Z,18.18
2022-09-12T02:55:42.072Z,18.19
2022-09-12T02:56:45.671Z,18.17
2022-09-12T02:57:47.311Z,18.11
2022-09-12T02:58:49.486Z,18.13
2022-09-12T02:59:58.968Z,18.11
2022-09-12T03:01:28.505Z,18.08
2022-09-12T03:02:57.973Z,18.05
2022-09-12T03:04:09.541Z,18.04
2022-09-12T03:05:34.333Z,18.03
2022-09-12T03:06:57.816Z,18.02
2022-09-12T03:08:07.244Z,18.02
2022-09-12T03:09:26.495Z,17.88
2022-09-12T03:11:03.008Z,17.97
2022-09-12T03:12:10.882Z,17.95
2022-09-12T03:13:26.053Z,17.94
2022-09-12T03:14:49.350Z,17.94
2022-09-12T03:16:18.518Z,17.93
2022-09-12T03:17:41.800Z,17.93
2022-09-12T03:19:11.322Z,17.89
2022-09-12T03:20:24.094Z,17.88
2022-09-12T03:21:53.431Z,17.89
2022-09-12T03:22:58.835Z,17.88
2022-09-12T03:24:14.299Z,17.86
2022-09-12T03:25:28.846Z,17.88
2022-09-12T03:27:11.825Z,17.85
2022-09-12T03:28:16.361Z,17.83
2022-09-12T03:29:19.446Z,17.73
2022-09-12T03:30:21.277Z,17.82
2022-09-12T03:31:23.185Z,17.82
2022-09-12T03:32:41.427Z,17.80
2022-09-12T03:33:43.355Z,17.80
2022-09-12T03:34:45.378Z,17.69
2022-09-12T03:35:47.889Z,17.82
2022-09-12T03:36:50.536Z,17.80
2022-09-12T03:37:53.251Z,17.83
2022-09-12T03:38:55.332Z,17.79
2022-09-12T03:39:57.025Z,17.73
2022-09-12T03:40:58.718Z,17.69
2022-09-12T03:42:00.414Z,17.76
2022-09-12T03:43:02.584Z,17.78
2022-09-12T03:44:04.277Z,17.80
2022-09-12T03:45:06.900Z,17.76
2022-09-12T03:46:08.748Z,17.72
2022-09-12T03:47:11.434Z,17.82
2022-09-12T03:48:13.214Z,17.80
2022-09-12T03:49:15.056Z,17.80
2022-09-12T03:50:16.927Z,17.78
2022-09-12T03:51:18.611Z,17.80
2022-09-12T03:52:21.270Z,17.74
2022-09-12T03:53:22.907Z,17.79
2022-09-12T03:54:24.667Z,17.85
2022-09-12T03:55:26.834Z,17.75
2022-09-12T03:56:28.543Z,17.82
2022-09-12T03:57:30.202Z,17.84
2022-09-12T03:58:32.022Z,17.85
2022-09-12T03:59:33.675Z,17.83
2022-09-12T04:00:35.374Z,17.73
2022-09-12T04:01:38.432Z,17.86
2022-09-12T04:02:40.152Z,17.88
2022-09-12T04:03:43.494Z,17.89
2022-09-12T04:04:48.019Z,17.90
2022-09-12T04:05:49.691Z,17.90
2022-09-12T04:06:51.335Z,17.90
2022-09-12T04:07:53.046Z,17.91
2022-09-12T04:08:55.470Z,17.91
2022-09-12T04:09:57.136Z,17.89
2022-09-12T04:11:07.369Z,17.92
2022-09-12T04:12:09.080Z,17.79
2022-09-12T04:13:10.826Z,17.90
2022-09-12T04:14:12.489Z,17.93
2022-09-12T04:15:14.630Z,17.94
2022-09-12T04:16:16.818Z,17.97
2022-09-12T04:17:18.582Z,18.02
2022-09-12T04:18:20.219Z,18.08
2022-09-12T04:19:21.895Z,18.09
2022-09-12T04:20:23.586Z,18.06
2022-09-12T04:21:25.437Z,18.16
2022-09-12T04:22:27.233Z,18.18
2022-09-12T04:23:28.919Z,18.27
2022-09-12T04:24:30.770Z,18.36
2022-09-12T04:25:32.470Z,18.43
2022-09-12T04:26:34.166Z,18.55
2022-09-12T04:27:35.931Z,18.66
2022-09-12T04:28:38.604Z,18.68
2022-09-12T04:29:40.252Z,18.84
2022-09-12T04:30:41.916Z,18.92
2022-09-12T04:31:44.077Z,19.01
2022-09-12T04:32:45.856Z,19.12
2022-09-12T04:33:47.585Z,19.19
2022-09-12T04:34:49.531Z,19.37
2022-09-12T04:35:51.195Z,19.41
2022-09-12T04:36:52.855Z,19.51
2022-09-12T04:37:54.615Z,19.62
2022-09-12T04:38:56.765Z,19.62
2022-09-12T04:39:59.312Z,19.83
2022-09-12T04:41:01.291Z,19.90
2022-09-12T04:42:04.804Z,20.00
2022-09-12T04:43:09.233Z,20.14
2022-09-12T04:44:14.531Z,20.17
2022-09-12T04:45:16.908Z,20.32
2022-09-12T04:46:22.182Z,20.49
2022-09-12T04:47:23.855Z,20.62
2022-09-12T04:48:25.554Z,20.71
2022-09-12T04:49:27.248Z,20.87
2022-09-12T04:50:29.062Z,20.91
2022-09-12T04:51:35.985Z,21.05
2022-09-12T04:52:37.628Z,21.22
2022-09-12T04:53:40.152Z,21.32
2022-09-12T04:54:41.855Z,21.52
2022-09-12T04:55:43.577Z,21.61
2022-09-12T04:56:47.594Z,21.63
2022-09-12T04:57:49.225Z,21.74
2022-09-12T04:58:50.978Z,21.72
2022-09-12T04:59:52.611Z,21.94
2022-09-12T05:00:54.309Z,22.09
2022-09-12T05:01:56.062Z,22.16
2022-09-12T05:02:57.876Z,22.19
2022-09-12T05:04:00.148Z,22.33
2022-09-12T05:05:01.776Z,22.35
2022-09-12T05:06:04.038Z,22.44
2022-09-12T05:07:06.010Z,22.60
2022-09-12T05:08:08.518Z,22.70
2022-09-12T05:09:14.462Z,22.90
2022-09-12T05:10:16.586Z,23.11
2022-09-12T05:11:26.571Z,23.15
2022-09-12T05:12:31.148Z,23.33
2022-09-12T05:13:33.933Z,23.49
2022-09-12T05:14:35.754Z,23.59
2022-09-12T05:15:37.806Z,23.71
2022-09-12T05:16:41.414Z,23.80
2022-09-12T05:17:43.053Z,24.00
2022-09-12T05:18:46.723Z,24.12
2022-09-12T05:19:48.842Z,24.09
2022-09-12T05:20:50.489Z,24.16
2022-09-12T05:21:52.140Z,24.21
2022-09-12T05:22:53.771Z,24.33
2022-09-12T05:23:59.695Z,24.35
2022-09-12T05:25:01.352Z,24.28
2022-09-12T05:26:05.618Z,24.46
2022-09-12T05:27:07.508Z,24.65
2022-09-12T05:28:09.161Z,24.86
2022-09-12T05:29:10.862Z,24.88
2022-09-12T05:30:12.724Z,25.01
2022-09-12T05:31:20.025Z,25.13
2022-09-12T05:32:21.668Z,25.39
2022-09-12T05:33:25.159Z,25.51
2022-09-12T05:34:28.015Z,25.74
2022-09-12T05:35:29.699Z,25.93
2022-09-12T05:36:31.658Z,25.73
2022-09-12T05:37:33.313Z,25.69
2022-09-12T05:38:35.709Z,25.84
2022-09-12T05:39:37.413Z,25.63
2022-09-12T05:40:39.077Z,25.66
2022-09-12T05:41:40.906Z,25.64
2022-09-12T05:42:42.557Z,25.61
2022-09-12T05:43:45.529Z,25.84
2022-09-12T05:44:47.187Z,26.08
2022-09-12T05:45:48.900Z,26.24
2022-09-12T05:46:51.510Z,26.35
2022-09-12T05:47:59.838Z,26.51
2022-09-12T05:49:06.557Z,26.88
2022-09-12T05:50:11.008Z,26.98
2022-09-12T05:51:21.276Z,26.94
2022-09-12T05:52:22.992Z,26.93
2022-09-12T05:53:28.269Z,26.94
2022-09-12T05:54:31.703Z,27.02
2022-09-12T05:55:33.522Z,26.88
2022-09-12T05:56:39.535Z,26.69
2022-09-12T05:57:46.212Z,26.63
2022-09-12T05:58:54.334Z,26.48
2022-09-12T05:59:55.968Z,26.51
2022-09-12T06:01:06.992Z,26.57
2022-09-12T06:02:10.618Z,26.54
2022-09-12T06:03:12.360Z,26.47
2022-09-12T06:04:14.476Z,26.35
2022-09-12T06:05:16.215Z,26.31
2022-09-12T06:06:20.912Z,26.47
2022-09-12T06:07:22.835Z,26.72
2022-09-12T06:08:24.498Z,26.71
2022-09-12T06:09:26.276Z,26.67
2022-09-12T06:10:28.615Z,26.65
2022-09-12T06:11:37.377Z,26.82
2022-09-12T06:12:39.606Z,26.77
2022-09-12T06:13:42.841Z,26.91
2022-09-12T06:14:44.482Z,26.94
2022-09-12T06:15:46.147Z,26.99
2022-09-12T06:16:48.773Z,26.96
2022-09-12T06:17:51.497Z,26.94
2022-09-12T06:18:55.738Z,27.10
2022-09-12T06:19:57.387Z,27.10
2022-09-12T06:21:06.365Z,27.22
2022-09-12T06:22:08.234Z,27.38
2022-09-12T06:23:09.896Z,27.73
2022-09-12T06:24:11.944Z,27.57
2022-09-12T06:25:14.453Z,27.85
2022-09-12T06:26:17.925Z,27.68
2022-09-12T06:27:19.679Z,27.57
2022-09-12T06:28:21.386Z,27.38
2022-09-12T06:29:23.189Z,27.34
2022-09-12T06:30:25.553Z,27.11
2022-09-12T06:31:30.667Z,26.69
2022-09-12T06:32:32.472Z,26.18
2022-09-12T06:33:35.751Z,25.99
2022-09-12T06:34:37.501Z,25.71
2022-09-12T06:35:39.273Z,25.83
2022-09-12T06:36:43.255Z,26.05
2022-09-12T06:37:45.798Z,26.41
2022-09-12T06:38:48.856Z,26.60
2022-09-12T06:39:50.753Z,26.66
2022-09-12T06:40:52.396Z,26.73
2022-09-12T06:41:54.426Z,27.04
2022-09-12T06:42:56.103Z,27.14
2022-09-12T06:43:59.070Z,27.51
2022-09-12T06:45:00.829Z,27.59
2022-09-12T06:46:03.502Z,27.69
2022-09-12T06:47:05.339Z,27.75
2022-09-12T06:48:07.058Z,27.94
2022-09-12T06:49:08.840Z,27.85
2022-09-12T06:50:10.867Z,27.63
2022-09-12T06:51:16.214Z,27.45
2022-09-12T06:52:18.191Z,27.41
2022-09-12T06:53:20.057Z,27.16
2022-09-12T06:54:21.811Z,27.07
2022-09-12T06:55:27.718Z,26.85
2022-09-12T06:56:29.669Z,26.90
2022-09-12T06:57:32.708Z,26.90
2022-09-12T06:58:35.602Z,27.02
2022-09-12T06:59:37.326Z,26.83
2022-09-12T07:00:39.768Z,26.97
2022-09-12T07:01:42.165Z,27.09
2022-09-12T07:02:44.024Z,27.26
2022-09-12T07:03:53.820Z,27.19
2022-09-12T07:04:55.489Z,27.08
2022-09-12T07:05:57.334Z,27.00
2022-09-12T07:06:58.989Z,27.04
2022-09-12T07:08:00.617Z,27.08
2022-09-12T07:09:04.798Z,27.02
2022-09-12T07:10:06.976Z,27.29
2022-09-12T07:11:20.842Z,27.73
2022-09-12T07:12:22.495Z,27.74
2022-09-12T07:13:24.167Z,27.92
2022-09-12T07:14:26.221Z,27.91
2022-09-12T07:15:27.902Z,27.64
2022-09-12T07:16:30.417Z,27.59
2022-09-12T07:17:32.267Z,27.60
2022-09-12T07:18:35.225Z,27.68
2022-09-12T07:19:36.981Z,27.95
2022-09-12T07:20:39.908Z,27.97
2022-09-12T07:21:42.176Z,28.00
2022-09-12T07:22:43.824Z,27.93
2022-09-12T07:23:45.778Z,28.09
2022-09-12T07:24:47.788Z,28.08
2022-09-12T07:25:59.386Z,28.20
2022-09-12T07:27:01.077Z,28.46
2022-09-12T07:28:02.954Z,28.80
2022-09-12T07:29:32.331Z,28.93
2022-09-12T07:30:27.060Z,28.86
2022-09-12T07:31:29.377Z,28.96
2022-09-12T07:32:31.118Z,28.94
2022-09-12T07:33:32.756Z,29.03
2022-09-12T07:34:35.238Z,28.95
2022-09-12T07:35:37.172Z,29.23
2022-09-12T07:36:39.326Z,29.41
2022-09-12T07:37:40.974Z,29.40
2022-09-12T07:38:44.113Z,29.20
2022-09-12T07:39:45.954Z,29.19
2022-09-12T07:40:48.077Z,29.29
2022-09-12T07:41:49.742Z,29.28
2022-09-12T07:42:51.393Z,29.23
2022-09-12T07:43:58.294Z,29.07
2022-09-12T07:45:00.006Z,28.96
2022-09-12T07:46:01.907Z,29.18
2022-09-12T07:47:04.694Z,29.38
2022-09-12T07:48:06.490Z,29.51
2022-09-12T07:49:08.531Z,29.64
2022-09-12T07:50:10.435Z,29.84
2022-09-12T07:51:12.381Z,30.26
2022-09-12T07:52:14.043Z,30.20
2022-09-12T07:53:16.069Z,30.33
2022-09-12T07:54:18.029Z,30.20
2022-09-12T07:55:19.832Z,29.96
2022-09-12T07:56:24.054Z,29.50
2022-09-12T07:57:27.838Z,28.80
2022-09-12T07:58:30.537Z,28.41
2022-09-12T07:59:51.454Z,28.44
2022-09-12T08:00:53.908Z,28.12
2022-09-12T08:01:55.585Z,28.09
2022-09-12T08:02:57.532Z,28.01
2022-09-12T08:04:00.108Z,27.96
2022-09-12T08:05:02.623Z,28.10
2022-09-12T08:06:21.716Z,28.33
2022-09-12T08:07:24.061Z,28.07
2022-09-12T08:08:25.701Z,27.80
2022-09-12T08:09:27.356Z,27.60
2022-09-12T08:10:29.029Z,27.26
2022-09-12T08:11:30.791Z,27.11
2022-09-12T08:12:32.437Z,27.07
2022-09-12T08:13:36.264Z,26.89
2022-09-12T08:14:37.950Z,26.88
2022-09-12T08:15:39.622Z,26.79
2022-09-12T08:16:41.268Z,26.45
2022-09-12T08:17:43.178Z,26.13
2022-09-12T08:18:45.415Z,25.99
2022-09-12T08:19:47.672Z,25.89
2022-09-12T08:20:49.332Z,25.81
2022-09-12T08:21:50.990Z,26.21
2022-09-12T08:22:52.700Z,26.30
2022-09-12T08:23:57.202Z,26.36
2022-09-12T08:24:58.875Z,26.41
2022-09-12T08:26:06.116Z,26.31
2022-09-12T08:27:08.698Z,26.23
2022-09-12T08:28:10.348Z,26.27
2022-09-12T08:29:12.184Z,26.23
2022-09-12T08:30:14.304Z,26.36
2022-09-12T08:31:18.990Z,26.65
2022-09-12T08:32:21.612Z,26.82
2022-09-12T08:33:23.266Z,26.83
2022-09-12T08:34:25.163Z,26.70
2022-09-12T08:35:26.814Z,26.61
2022-09-12T08:36:29.741Z,26.45
2022-09-12T08:37:31.880Z,26.37
2022-09-12T08:38:38.609Z,26.57
2022-09-12T08:39:40.324Z,26.58
2022-09-12T08:41:00.286Z,26.58
2022-09-12T08:42:04.269Z,26.59
2022-09-12T08:43:28.656Z,26.53
2022-09-12T08:44:49.011Z,26.42
2022-09-12T08:46:05.123Z,26.19
2022-09-12T08:47:27.039Z,26.25
2022-09-12T08:48:28.910Z,26.43
2022-09-12T08:49:40.994Z,26.73
2022-09-12T08:50:49.294Z,27.14
2022-09-12T08:51:52.173Z,27.30
2022-09-12T08:52:58.907Z,27.28
2022-09-12T08:54:02.571Z,27.30
2022-09-12T08:55:06.786Z,27.23
2022-09-12T08:56:11.539Z,27.25
2022-09-12T08:57:15.323Z,27.19
2022-09-12T08:58:25.391Z,27.21
2022-09-12T08:59:29.107Z,27.32
2022-09-12T09:00:47.461Z,27.56
2022-09-12T09:01:53.966Z,27.59
2022-09-12T09:03:18.915Z,27.39
2022-09-12T09:04:58.771Z,27.58
2022-09-12T09:06:10.256Z,27.81
2022-09-12T09:07:42.829Z,28.10
2022-09-12T09:08:58.543Z,28.37
2022-09-12T09:10:00.171Z,28.23
2022-09-12T09:11:20.320Z,28.26
2022-09-12T09:12:43.854Z,28.32
2022-09-12T09:14:17.941Z,28.38
2022-09-12T09:15:45.886Z,28.64
2022-09-12T09:16:51.862Z,28.68
2022-09-12T09:18:04.350Z,28.59
2022-09-12T09:19:30.022Z,28.59
2022-09-12T09:21:17.818Z,28.64
2022-09-12T09:22:32.725Z,28.66
2022-09-12T09:23:40.602Z,28.78
2022-09-12T09:24:51.967Z,28.96
2022-09-12T09:26:17.953Z,29.10
2022-09-12T09:27:39.763Z,29.27
2022-09-12T09:28:55.975Z,29.35
2022-09-12T09:29:57.677Z,29.52
2022-09-12T09:30:59.443Z,29.51
2022-09-12T09:32:05.373Z,29.70
2022-09-12T09:33:15.734Z,29.82
2022-09-12T09:34:23.724Z,29.79
2022-09-12T09:35:45.124Z,29.58
2022-09-12T09:36:49.739Z,29.25
2022-09-12T09:37:59.729Z,29.01
2022-09-12T09:39:04.191Z,28.93
2022-09-12T09:40:15.850Z,28.92
2022-09-12T09:41:17.948Z,28.92
2022-09-12T09:42:45.794Z,28.99
2022-09-12T09:43:47.511Z,29.17
2022-09-12T09:44:49.909Z,29.27
2022-09-12T09:45:56.690Z,29.51
2022-09-12T09:46:59.948Z,29.48
2022-09-12T09:48:27.787Z,29.43
2022-09-12T09:49:33.730Z,29.56
2022-09-12T09:50:36.898Z,29.75
2022-09-12T09:51:42.422Z,29.92
2022-09-12T09:52:44.560Z,29.96
2022-09-12T09:53:54.283Z,29.95
2022-09-12T09:55:01.827Z,29.88
2022-09-12T09:56:26.279Z,29.87
2022-09-12T09:57:40.600Z,30.01
2022-09-12T09:58:42.343Z,30.17
2022-09-12T09:59:44.021Z,30.27
2022-09-12T10:00:47.402Z,30.36
2022-09-12T10:01:57.715Z,30.40
2022-09-12T10:03:14.334Z,30.27
2022-09-12T10:04:46.582Z,30.10
2022-09-12T10:05:53.537Z,30.09
2022-09-12T10:06:58.578Z,30.16
2022-09-12T10:08:00.707Z,30.15
2022-09-12T10:09:13.345Z,30.23
2022-09-12T10:10:17.905Z,30.47
2022-09-12T10:11:23.285Z,30.70
2022-09-12T10:12:28.851Z,30.89
2022-09-12T10:14:01.445Z,31.10
2022-09-12T10:15:23.680Z,31.34
2022-09-12T10:16:49.403Z,31.24
2022-09-12T10:17:51.758Z,31.14
2022-09-12T10:19:01.813Z,31.11
2022-09-12T10:20:20.482Z,31.05
2022-09-12T10:21:34.342Z,30.92
2022-09-12T10:22:36.110Z,30.78
2022-09-12T10:23:41.145Z,30.61
2022-09-12T10:24:49.170Z,30.58
2022-09-12T10:25:58.031Z,30.66
2022-09-12T10:27:08.913Z,30.62
2022-09-12T10:28:20.408Z,30.66
2022-09-12T10:29:31.584Z,30.54
2022-09-12T10:30:34.424Z,30.51
2022-09-12T10:31:51.261Z,30.49
2022-09-12T10:32:53.354Z,30.42
2022-09-12T10:33:58.941Z,30.50
2022-09-12T10:35:04.256Z,30.23
2022-09-12T10:36:06.268Z,30.09
2022-09-12T10:37:20.046Z,30.21
2022-09-12T10:38:25.263Z,30.10
2022-09-12T10:39:27.486Z,29.87
2022-09-12T10:40:38.994Z,30.16
2022-09-12T10:41:41.701Z,30.20
2022-09-12T10:42:49.164Z,30.38
2022-09-12T10:43:51.044Z,30.55
2022-09-12T10:44:54.677Z,30.54
2022-09-12T10:46:19.842Z,30.79
2022-09-12T10:47:30.984Z,30.44
2022-09-12T10:48:33.648Z,30.26
2022-09-12T10:49:40.134Z,30.27
2022-09-12T10:50:43.125Z,30.45
2022-09-12T10:51:44.805Z,30.47
2022-09-12T10:52:46.647Z,30.54
2022-09-12T10:53:48.424Z,30.62
2022-09-12T10:54:51.555Z,30.69
2022-09-12T10:56:17.052Z,30.78
2022-09-12T10:57:18.654Z,30.74
2022-09-12T10:58:40.411Z,30.67
2022-09-12T11:00:05.528Z,30.52
2022-09-12T11:01:24.966Z,30.57
2022-09-12T11:02:48.649Z,30.60
2022-09-12T11:04:35.244Z,30.41
2022-09-12T11:05:51.417Z,30.29
2022-09-12T11:07:11.435Z,30.45
2022-09-12T11:08:29.382Z,30.76
2022-09-12T11:09:53.090Z,30.74
2022-09-12T11:11:23.905Z,30.38
2022-09-12T11:12:28.537Z,30.16
2022-09-12T11:13:47.733Z,30.06
2022-09-12T11:15:01.275Z,29.58
2022-09-12T11:16:30.988Z,29.41
2022-09-12T11:18:27.154Z,28.98
2022-09-12T11:19:37.747Z,28.83
2022-09-12T11:20:39.377Z,28.76
2022-09-12T11:21:57.062Z,28.79
2022-09-12T11:23:25.559Z,28.93
2022-09-12T11:24:37.272Z,29.16
2022-09-12T11:26:10.938Z,29.52
2022-09-12T11:27:18.571Z,29.55
2022-09-12T11:28:30.568Z,29.67
2022-09-12T11:29:52.660Z,29.67
2022-09-12T11:30:57.101Z,29.68
2022-09-12T11:32:20.654Z,29.63
2022-09-12T11:33:43.379Z,29.22
2022-09-12T11:35:04.191Z,29.22
2022-09-12T11:36:12.893Z,29.15
2022-09-12T11:37:33.366Z,29.19
2022-09-12T11:38:47.327Z,29.22
2022-09-12T11:39:55.641Z,29.15
2022-09-12T11:41:05.664Z,28.97
2022-09-12T11:42:17.013Z,28.74
2022-09-12T11:43:46.072Z,28.59
2022-09-12T11:44:57.218Z,28.52
2022-09-12T11:46:07.157Z,28.38
2022-09-12T11:47:13.606Z,28.21
2022-09-12T11:48:20.835Z,28.14
2022-09-12T11:49:25.314Z,28.10
2022-09-12T11:50:31.996Z,27.96
2022-09-12T11:51:55.507Z,27.93
2022-09-12T11:53:24.201Z,28.00
2022-09-12T11:55:01.025Z,28.01
2022-09-12T11:56:10.227Z,28.03
2022-09-12T11:57:20.960Z,28.10
2022-09-12T11:58:26.782Z,28.04
2022-09-12T11:59:34.765Z,28.08
2022-09-12T12:00:50.311Z,28.02
2022-09-12T12:01:59.314Z,28.08
2022-09-12T12:03:07.190Z,28.13
2022-09-12T12:04:12.980Z,28.06
2022-09-12T12:05:25.316Z,28.04
2022-09-12T12:06:43.587Z,27.99
2022-09-12T12:07:57.228Z,27.98
2022-09-12T12:08:59.344Z,27.86
2022-09-12T12:10:01.105Z,27.88
2022-09-12T12:11:04.965Z,27.82
2022-09-12T12:12:14.457Z,27.81
2022-09-12T12:13:21.863Z,27.61
2022-09-12T12:14:45.530Z,27.57
2022-09-12T12:15:55.215Z,27.48
2022-09-12T12:16:57.318Z,27.46
2022-09-12T12:18:29.321Z,27.35
2022-09-12T12:19:34.914Z,27.13
2022-09-12T12:20:36.893Z,27.11
2022-09-12T12:21:52.612Z,26.98
2022-09-12T12:22:55.433Z,27.09
2022-09-12T12:24:08.820Z,27.05
2022-09-12T12:25:15.426Z,27.11
2022-09-12T12:26:43.552Z,27.07
2022-09-12T12:27:56.711Z,27.08
2022-09-12T12:29:00.022Z,27.15
2022-09-12T12:30:01.727Z,27.13
2022-09-12T12:31:03.690Z,27.02
2022-09-12T12:32:05.870Z,27.06
2022-09-12T12:33:10.414Z,27.10
2022-09-12T12:34:29.011Z,27.19
2022-09-12T12:36:02.519Z,27.10
2022-09-12T12:37:19.583Z,27.08
2022-09-12T12:38:30.337Z,27.11
2022-09-12T12:39:31.945Z,27.12
2022-09-12T12:40:33.876Z,27.20
2022-09-12T12:41:44.182Z,27.29
2022-09-12T12:42:45.823Z,27.45
2022-09-12T12:43:49.737Z,27.54
2022-09-12T12:44:51.705Z,27.53
2022-09-12T12:46:02.990Z,27.46
2022-09-12T12:47:24.301Z,27.32
2022-09-12T12:48:26.185Z,27.31
2022-09-12T12:49:28.867Z,27.21
2022-09-12T12:50:32.128Z,27.15
2022-09-12T12:51:54.963Z,27.03
2022-09-12T12:53:07.858Z,26.97
2022-09-12T12:54:51.527Z,26.95
2022-09-12T12:55:55.848Z,26.99
2022-09-12T12:57:15.640Z,26.95
2022-09-12T12:58:35.200Z,26.83
2022-09-12T12:59:36.895Z,26.75
2022-09-12T13:00:40.546Z,26.75
2022-09-12T13:01:54.794Z,26.72
2022-09-12T13:03:01.296Z,26.58
2022-09-12T13:04:05.627Z,26.84
2022-09-12T13:05:22.368Z,27.13
2022-09-12T13:06:37.646Z,27.27
2022-09-12T13:07:40.764Z,27.37
2022-09-12T13:08:55.425Z,27.52
2022-09-12T13:09:58.215Z,27.64
2022-09-12T13:11:11.744Z,27.78
2022-09-12T13:12:26.092Z,27.85
2022-09-12T13:13:34.347Z,27.93
2022-09-12T13:14:55.076Z,27.97
2022-09-12T13:15:56.792Z,27.95
2022-09-12T13:17:02.137Z,27.95
2022-09-12T13:18:18.858Z,27.97
2022-09-12T13:19:29.353Z,28.10
2022-09-12T13:20:37.904Z,28.15
2022-09-12T13:21:39.755Z,28.23
2022-09-12T13:22:47.310Z,28.27
2022-09-12T13:24:04.264Z,28.36
2022-09-12T13:25:37.358Z,28.40
2022-09-12T13:26:44.694Z,28.45
2022-09-12T13:28:05.082Z,28.54
2022-09-12T13:29:26.806Z,28.57
2022-09-12T13:30:32.054Z,28.70
2022-09-12T13:31:33.877Z,28.57
2022-09-12T13:32:35.979Z,28.64
2022-09-12T13:33:47.007Z,28.57
2022-09-12T13:35:22.919Z,28.59
2022-09-12T13:36:42.722Z,28.71
2022-09-12T13:38:10.184Z,28.78
2022-09-12T13:39:19.212Z,28.76
2022-09-12T13:40:39.932Z,28.88
2022-09-12T13:42:23.152Z,28.99
2022-09-12T13:43:40.094Z,28.96
2022-09-12T13:44:48.213Z,28.98
2022-09-12T13:45:50.816Z,28.96
2022-09-12T13:46:53.430Z,29.02
2022-09-12T13:48:02.114Z,28.97
2022-09-12T13:49:18.589Z,28.97
2022-09-12T13:50:23.876Z,29.04
2022-09-12T13:51:29.959Z,29.08
2022-09-12T13:52:35.063Z,29.19
2022-09-12T13:53:48.123Z,29.19
2022-09-12T13:54:54.953Z,29.11
2022-09-12T13:55:59.484Z,29.02
2022-09-12T13:57:01.767Z,29.10
2022-09-12T13:58:06.299Z,29.08
2022-09-12T13:59:12.515Z,28.93
2022-09-12T14:00:22.563Z,28.92
2022-09-12T14:01:26.004Z,28.86
2022-09-12T14:02:31.480Z,28.83
2022-09-12T14:03:58.996Z,28.89
2022-09-12T14:05:10.354Z,28.87
2022-09-12T14:06:12.923Z,28.73
2022-09-12T14:07:17.426Z,28.64
2022-09-12T14:08:19.876Z,28.58
2022-09-12T14:09:32.710Z,28.41
2022-09-12T14:10:37.955Z,28.21
2022-09-12T14:11:40.150Z,27.98
2022-09-12T14:12:43.678Z,27.75
2022-09-12T14:13:46.186Z,27.64
2022-09-12T14:14:51.079Z,27.63
2022-09-12T14:15:55.024Z,27.38
2022-09-12T14:16:57.882Z,27.43
2022-09-12T14:18:02.003Z,27.25
2022-09-12T14:19:05.434Z,27.13
2022-09-12T14:20:13.600Z,27.12
2022-09-12T14:21:35.811Z,27.01
2022-09-12T14:22:38.950Z,26.83
2022-09-12T14:23:43.737Z,26.85
2022-09-12T14:24:52.936Z,26.69
2022-09-12T14:25:56.996Z,26.70
2022-09-12T14:26:59.097Z,26.59
2022-09-12T14:28:01.496Z,26.64
2022-09-12T14:29:06.442Z,26.67
2022-09-12T14:30:19.272Z,26.68
2022-09-12T14:31:28.887Z,26.62
2022-09-12T14:32:30.760Z,26.57
2022-09-12T14:33:53.930Z,26.55
2022-09-12T14:35:19.804Z,26.59
2022-09-12T14:36:32.572Z,26.63
2022-09-12T14:37:34.289Z,26.59